sensor_id;sensor_type;location;lat;lon;timestamp;temperature;humidity
702;DHT22;334;48.808;9.222;2023-05-06T00:00:07;18.70;10.50
702;DHT22;334;48.808;9.222;2023-05-06T00:01:09;18.70;10.50
702;DHT22;334;48.808;9.222;2023-05-06T00:02:11;18.70;10.50
702;DHT22;334;48.808;9.222;2023-05-06T00:03:13;18.70;10.80
702;DHT22;334;48.808;9.222;2023-05-06T00:04:15;18.70;10.90
702;DHT22;334;48.808;9.222;2023-05-06T00:05:17;18.70;11.30
702;DHT22;334;48.808;9.222;2023-05-06T00:06:19;18.70;11.50
702;DHT22;334;48.808;9.222;2023-05-06T00:07:21;18.70;11.50
702;DHT22;334;48.808;9.222;2023-05-06T00:08:23;18.70;11.40
702;DHT22;334;48.808;9.222;2023-05-06T00:09:25;18.70;11.00
702;DHT22;334;48.808;9.222;2023-05-06T00:10:27;18.70;11.30
702;DHT22;334;48.808;9.222;2023-05-06T00:11:28;18.70;11.80
702;DHT22;334;48.808;9.222;2023-05-06T00:12:30;18.70;12.10
702;DHT22;334;48.808;9.222;2023-05-06T00:13:32;18.70;12.30
702;DHT22;334;48.808;9.222;2023-05-06T00:14:35;18.70;12.50
702;DHT22;334;48.808;9.222;2023-05-06T00:15:37;18.70;12.80
702;DHT22;334;48.808;9.222;2023-05-06T00:16:39;18.60;12.90
702;DHT22;334;48.808;9.222;2023-05-06T00:17:41;18.70;13.00
702;DHT22;334;48.808;9.222;2023-05-06T00:18:43;18.60;13.00
702;DHT22;334;48.808;9.222;2023-05-06T00:19:44;18.60;12.50
702;DHT22;334;48.808;9.222;2023-05-06T00:20:46;18.60;12.30
702;DHT22;334;48.808;9.222;2023-05-06T00:21:48;18.60;12.40
702;DHT22;334;48.808;9.222;2023-05-06T00:22:50;18.60;12.40
702;DHT22;334;48.808;9.222;2023-05-06T00:23:51;18.60;12.30
702;DHT22;334;48.808;9.222;2023-05-06T00:24:53;18.60;12.40
702;DHT22;334;48.808;9.222;2023-05-06T00:25:55;18.60;12.40
702;DHT22;334;48.808;9.222;2023-05-06T00:26:57;18.60;12.40
702;DHT22;334;48.808;9.222;2023-05-06T00:27:59;18.60;12.20
702;DHT22;334;48.808;9.222;2023-05-06T00:29:01;18.60;12.10
702;DHT22;334;48.808;9.222;2023-05-06T00:30:03;18.60;12.00
702;DHT22;334;48.808;9.222;2023-05-06T00:31:05;18.60;12.10
702;DHT22;334;48.808;9.222;2023-05-06T00:32:07;18.60;12.30
702;DHT22;334;48.808;9.222;2023-05-06T00:33:09;18.50;12.50
702;DHT22;334;48.808;9.222;2023-05-06T00:34:11;18.60;12.80
702;DHT22;334;48.808;9.222;2023-05-06T00:35:13;18.60;12.80
702;DHT22;334;48.808;9.222;2023-05-06T00:36:15;18.60;12.80
702;DHT22;334;48.808;9.222;2023-05-06T00:37:16;18.60;13.00
702;DHT22;334;48.808;9.222;2023-05-06T00:38:18;18.60;12.80
702;DHT22;334;48.808;9.222;2023-05-06T00:39:20;18.60;12.60
702;DHT22;334;48.808;9.222;2023-05-06T00:40:22;18.60;12.60
702;DHT22;334;48.808;9.222;2023-05-06T00:41:24;18.60;12.70
702;DHT22;334;48.808;9.222;2023-05-06T00:42:26;18.50;12.70
702;DHT22;334;48.808;9.222;2023-05-06T00:43:28;18.50;12.70
702;DHT22;334;48.808;9.222;2023-05-06T00:44:30;18.40;10.20
702;DHT22;334;48.808;9.222;2023-05-06T00:45:32;18.40;8.70
702;DHT22;334;48.808;9.222;2023-05-06T00:46:34;18.40;8.50
702;DHT22;334;48.808;9.222;2023-05-06T00:47:37;18.50;9.80
702;DHT22;334;48.808;9.222;2023-05-06T00:48:40;18.30;10.50
702;DHT22;334;48.808;9.222;2023-05-06T00:49:43;18.30;10.90
702;DHT22;334;48.808;9.222;2023-05-06T00:50:45;18.30;11.20
702;DHT22;334;48.808;9.222;2023-05-06T00:51:47;18.30;11.40
702;DHT22;334;48.808;9.222;2023-05-06T00:52:50;18.30;11.50
702;DHT22;334;48.808;9.222;2023-05-06T00:53:52;18.30;10.60
702;DHT22;334;48.808;9.222;2023-05-06T00:54:54;18.30;10.00
702;DHT22;334;48.808;9.222;2023-05-06T00:55:56;18.40;9.60
702;DHT22;334;48.808;9.222;2023-05-06T00:56:59;18.30;9.40
702;DHT22;334;48.808;9.222;2023-05-06T00:58:02;18.30;9.10
702;DHT22;334;48.808;9.222;2023-05-06T00:59:06;18.30;8.80
702;DHT22;334;48.808;9.222;2023-05-06T01:00:08;18.30;8.20
702;DHT22;334;48.808;9.222;2023-05-06T01:01:12;18.30;7.80
702;DHT22;334;48.808;9.222;2023-05-06T01:02:14;18.30;7.70
702;DHT22;334;48.808;9.222;2023-05-06T01:03:17;18.30;7.20
702;DHT22;334;48.808;9.222;2023-05-06T01:04:20;18.40;6.70
702;DHT22;334;48.808;9.222;2023-05-06T01:05:25;18.30;7.00
702;DHT22;334;48.808;9.222;2023-05-06T01:06:57;18.30;6.60
702;DHT22;334;48.808;9.222;2023-05-06T01:09:33;18.30;7.00
702;DHT22;334;48.808;9.222;2023-05-06T01:10:53;18.30;7.80
702;DHT22;334;48.808;9.222;2023-05-06T01:12:07;18.30;8.40
702;DHT22;334;48.808;9.222;2023-05-06T01:14:35;18.20;8.20
702;DHT22;334;48.808;9.222;2023-05-06T01:15:48;18.20;8.10
702;DHT22;334;48.808;9.222;2023-05-06T01:16:55;18.20;8.40
702;DHT22;334;48.808;9.222;2023-05-06T01:18:16;18.20;8.30
702;DHT22;334;48.808;9.222;2023-05-06T01:19:32;18.20;8.60
702;DHT22;334;48.808;9.222;2023-05-06T01:20:37;18.20;9.00
702;DHT22;334;48.808;9.222;2023-05-06T01:21:40;18.10;8.70
702;DHT22;334;48.808;9.222;2023-05-06T01:22:44;18.10;8.00
702;DHT22;334;48.808;9.222;2023-05-06T01:23:54;18.10;8.00
702;DHT22;334;48.808;9.222;2023-05-06T01:24:56;18.10;8.60
702;DHT22;334;48.808;9.222;2023-05-06T01:25:58;18.10;8.50
702;DHT22;334;48.808;9.222;2023-05-06T01:27:01;18.10;8.50
702;DHT22;334;48.808;9.222;2023-05-06T01:28:03;18.20;8.60
702;DHT22;334;48.808;9.222;2023-05-06T01:29:07;18.10;8.70
702;DHT22;334;48.808;9.222;2023-05-06T01:30:09;18.10;8.80
702;DHT22;334;48.808;9.222;2023-05-06T01:31:36;18.10;8.90
702;DHT22;334;48.808;9.222;2023-05-06T01:32:49;18.00;9.10
702;DHT22;334;48.808;9.222;2023-05-06T01:34:09;18.10;9.20
702;DHT22;334;48.808;9.222;2023-05-06T01:35:23;18.00;8.30
702;DHT22;334;48.808;9.222;2023-05-06T01:36:34;18.00;8.10
702;DHT22;334;48.808;9.222;2023-05-06T01:37:51;18.00;8.30
702;DHT22;334;48.808;9.222;2023-05-06T01:40:10;18.00;8.80
702;DHT22;334;48.808;9.222;2023-05-06T01:41:15;18.00;8.90
702;DHT22;334;48.808;9.222;2023-05-06T01:42:18;17.90;9.10
702;DHT22;334;48.808;9.222;2023-05-06T01:43:23;18.00;9.60
702;DHT22;334;48.808;9.222;2023-05-06T01:44:32;17.90;9.90
702;DHT22;334;48.808;9.222;2023-05-06T01:45:35;17.90;10.00
702;DHT22;334;48.808;9.222;2023-05-06T01:46:38;17.90;9.90
702;DHT22;334;48.808;9.222;2023-05-06T01:47:43;17.90;9.90
702;DHT22;334;48.808;9.222;2023-05-06T01:48:48;17.90;9.60
702;DHT22;334;48.808;9.222;2023-05-06T01:49:53;18.00;9.10
702;DHT22;334;48.808;9.222;2023-05-06T01:50:55;17.90;8.50
702;DHT22;334;48.808;9.222;2023-05-06T01:51:57;18.00;8.60
702;DHT22;334;48.808;9.222;2023-05-06T01:53:00;18.00;8.30
702;DHT22;334;48.808;9.222;2023-05-06T01:54:03;18.00;8.70
702;DHT22;334;48.808;9.222;2023-05-06T01:55:05;17.90;9.00
702;DHT22;334;48.808;9.222;2023-05-06T01:56:07;17.90;9.20
702;DHT22;334;48.808;9.222;2023-05-06T01:57:09;17.90;9.10
702;DHT22;334;48.808;9.222;2023-05-06T01:58:11;17.90;9.10
702;DHT22;334;48.808;9.222;2023-05-06T01:59:13;17.90;9.20
702;DHT22;334;48.808;9.222;2023-05-06T02:00:15;17.90;9.40
702;DHT22;334;48.808;9.222;2023-05-06T02:01:17;17.90;9.60
702;DHT22;334;48.808;9.222;2023-05-06T02:02:19;17.90;9.80
702;DHT22;334;48.808;9.222;2023-05-06T02:03:21;17.90;9.60
702;DHT22;334;48.808;9.222;2023-05-06T02:04:23;17.90;9.30
702;DHT22;334;48.808;9.222;2023-05-06T02:05:25;18.00;9.00
702;DHT22;334;48.808;9.222;2023-05-06T02:06:27;18.00;8.70
702;DHT22;334;48.808;9.222;2023-05-06T02:07:28;18.00;8.70
702;DHT22;334;48.808;9.222;2023-05-06T02:08:30;18.00;8.80
702;DHT22;334;48.808;9.222;2023-05-06T02:09:32;18.00;9.30
702;DHT22;334;48.808;9.222;2023-05-06T02:10:34;18.00;9.60
702;DHT22;334;48.808;9.222;2023-05-06T02:11:36;18.00;9.60
702;DHT22;334;48.808;9.222;2023-05-06T02:12:38;18.00;9.60
702;DHT22;334;48.808;9.222;2023-05-06T02:13:40;18.00;8.90
702;DHT22;334;48.808;9.222;2023-05-06T02:14:41;18.00;9.10
702;DHT22;334;48.808;9.222;2023-05-06T02:15:43;18.00;9.20
702;DHT22;334;48.808;9.222;2023-05-06T02:16:45;18.00;9.30
702;DHT22;334;48.808;9.222;2023-05-06T02:17:48;18.00;9.20
702;DHT22;334;48.808;9.222;2023-05-06T02:18:49;18.00;8.00
702;DHT22;334;48.808;9.222;2023-05-06T02:19:51;18.00;7.30
702;DHT22;334;48.808;9.222;2023-05-06T02:20:53;18.00;7.10
702;DHT22;334;48.808;9.222;2023-05-06T02:21:55;18.00;6.40
702;DHT22;334;48.808;9.222;2023-05-06T02:22:58;18.00;6.40
702;DHT22;334;48.808;9.222;2023-05-06T02:23:59;18.00;6.40
702;DHT22;334;48.808;9.222;2023-05-06T02:25:01;18.00;6.80
702;DHT22;334;48.808;9.222;2023-05-06T02:26:04;18.00;7.30
702;DHT22;334;48.808;9.222;2023-05-06T02:27:06;18.00;7.20
702;DHT22;334;48.808;9.222;2023-05-06T02:28:08;18.00;7.10
702;DHT22;334;48.808;9.222;2023-05-06T02:29:09;18.00;7.10
702;DHT22;334;48.808;9.222;2023-05-06T02:30:11;18.00;7.20
702;DHT22;334;48.808;9.222;2023-05-06T02:31:14;18.00;7.30
702;DHT22;334;48.808;9.222;2023-05-06T02:32:16;18.00;7.40
702;DHT22;334;48.808;9.222;2023-05-06T02:33:18;18.00;7.10
702;DHT22;334;48.808;9.222;2023-05-06T02:34:20;18.00;7.10
702;DHT22;334;48.808;9.222;2023-05-06T02:35:23;18.00;7.00
702;DHT22;334;48.808;9.222;2023-05-06T02:36:25;18.00;6.80
702;DHT22;334;48.808;9.222;2023-05-06T02:37:28;18.00;6.40
702;DHT22;334;48.808;9.222;2023-05-06T02:38:30;18.00;6.40
702;DHT22;334;48.808;9.222;2023-05-06T02:39:31;18.00;6.40
702;DHT22;334;48.808;9.222;2023-05-06T02:40:33;18.00;7.00
702;DHT22;334;48.808;9.222;2023-05-06T02:41:35;18.00;7.10
702;DHT22;334;48.808;9.222;2023-05-06T02:42:36;18.00;7.30
702;DHT22;334;48.808;9.222;2023-05-06T02:43:38;18.00;6.90
702;DHT22;334;48.808;9.222;2023-05-06T02:44:40;18.00;6.40
702;DHT22;334;48.808;9.222;2023-05-06T02:45:42;18.00;6.40
702;DHT22;334;48.808;9.222;2023-05-06T02:46:44;18.00;6.40
702;DHT22;334;48.808;9.222;2023-05-06T02:47:46;17.90;6.30
702;DHT22;334;48.808;9.222;2023-05-06T02:48:48;17.90;6.30
702;DHT22;334;48.808;9.222;2023-05-06T02:49:49;17.90;6.30
702;DHT22;334;48.808;9.222;2023-05-06T02:50:51;17.90;6.40
702;DHT22;334;48.808;9.222;2023-05-06T02:51:53;17.90;6.30
702;DHT22;334;48.808;9.222;2023-05-06T02:52:55;17.90;6.30
702;DHT22;334;48.808;9.222;2023-05-06T02:53:57;17.90;6.30
702;DHT22;334;48.808;9.222;2023-05-06T02:55:00;17.90;6.30
702;DHT22;334;48.808;9.222;2023-05-06T02:56:02;17.90;6.30
702;DHT22;334;48.808;9.222;2023-05-06T02:57:04;17.90;6.30
702;DHT22;334;48.808;9.222;2023-05-06T02:58:06;17.90;6.30
702;DHT22;334;48.808;9.222;2023-05-06T02:59:08;17.90;6.00
702;DHT22;334;48.808;9.222;2023-05-06T03:00:10;17.90;5.70
702;DHT22;334;48.808;9.222;2023-05-06T03:01:13;17.90;6.10
702;DHT22;334;48.808;9.222;2023-05-06T03:02:15;17.90;5.70
702;DHT22;334;48.808;9.222;2023-05-06T03:03:17;17.90;5.50
702;DHT22;334;48.808;9.222;2023-05-06T03:04:19;17.90;5.60
702;DHT22;334;48.808;9.222;2023-05-06T03:05:21;17.90;5.60
702;DHT22;334;48.808;9.222;2023-05-06T03:06:23;17.90;5.70
702;DHT22;334;48.808;9.222;2023-05-06T03:07:25;17.90;6.30
702;DHT22;334;48.808;9.222;2023-05-06T03:08:26;17.90;6.30
702;DHT22;334;48.808;9.222;2023-05-06T03:09:28;17.90;5.50
702;DHT22;334;48.808;9.222;2023-05-06T03:10:30;17.90;5.40
702;DHT22;334;48.808;9.222;2023-05-06T03:11:32;17.90;5.20
702;DHT22;334;48.808;9.222;2023-05-06T03:12:34;17.90;5.10
702;DHT22;334;48.808;9.222;2023-05-06T03:13:36;17.90;4.50
702;DHT22;334;48.808;9.222;2023-05-06T03:14:37;17.80;4.50
702;DHT22;334;48.808;9.222;2023-05-06T03:15:39;17.80;4.50
702;DHT22;334;48.808;9.222;2023-05-06T03:16:42;17.80;4.50
702;DHT22;334;48.808;9.222;2023-05-06T03:17:48;17.80;4.30
702;DHT22;334;48.808;9.222;2023-05-06T03:18:53;17.80;4.40
702;DHT22;334;48.808;9.222;2023-05-06T03:19:55;17.90;5.10
702;DHT22;334;48.808;9.222;2023-05-06T03:20:57;17.80;5.50
702;DHT22;334;48.808;9.222;2023-05-06T03:21:59;17.80;5.80
702;DHT22;334;48.808;9.222;2023-05-06T03:23:00;17.70;5.60
702;DHT22;334;48.808;9.222;2023-05-06T03:24:02;17.80;5.90
702;DHT22;334;48.808;9.222;2023-05-06T03:25:04;17.80;6.20
702;DHT22;334;48.808;9.222;2023-05-06T03:26:06;17.80;6.20
702;DHT22;334;48.808;9.222;2023-05-06T03:27:08;17.80;5.80
702;DHT22;334;48.808;9.222;2023-05-06T03:28:10;17.80;5.80
702;DHT22;334;48.808;9.222;2023-05-06T03:29:12;17.80;5.60
702;DHT22;334;48.808;9.222;2023-05-06T03:30:14;17.90;5.80
702;DHT22;334;48.808;9.222;2023-05-06T03:31:16;17.80;6.20
702;DHT22;334;48.808;9.222;2023-05-06T03:32:17;17.80;6.20
702;DHT22;334;48.808;9.222;2023-05-06T03:33:19;17.80;6.20
702;DHT22;334;48.808;9.222;2023-05-06T03:34:21;17.80;6.20
702;DHT22;334;48.808;9.222;2023-05-06T03:35:23;17.80;6.30
702;DHT22;334;48.808;9.222;2023-05-06T03:36:24;17.80;6.60
702;DHT22;334;48.808;9.222;2023-05-06T03:37:28;17.80;6.70
702;DHT22;334;48.808;9.222;2023-05-06T03:38:31;17.80;7.00
702;DHT22;334;48.808;9.222;2023-05-06T03:39:32;17.80;7.10
702;DHT22;334;48.808;9.222;2023-05-06T03:40:35;17.80;7.20
702;DHT22;334;48.808;9.222;2023-05-06T03:41:36;17.80;7.20
702;DHT22;334;48.808;9.222;2023-05-06T03:42:38;17.80;7.30
702;DHT22;334;48.808;9.222;2023-05-06T03:43:40;17.80;7.50
702;DHT22;334;48.808;9.222;2023-05-06T03:44:42;17.80;7.50
702;DHT22;334;48.808;9.222;2023-05-06T03:45:44;17.80;6.70
702;DHT22;334;48.808;9.222;2023-05-06T03:46:46;17.80;6.20
702;DHT22;334;48.808;9.222;2023-05-06T03:47:48;17.80;6.20
702;DHT22;334;48.808;9.222;2023-05-06T03:48:50;17.80;6.20
702;DHT22;334;48.808;9.222;2023-05-06T03:49:52;17.90;6.30
702;DHT22;334;48.808;9.222;2023-05-06T03:50:54;17.70;6.20
702;DHT22;334;48.808;9.222;2023-05-06T03:51:56;17.70;6.20
702;DHT22;334;48.808;9.222;2023-05-06T03:52:58;17.70;6.20
702;DHT22;334;48.808;9.222;2023-05-06T03:54:01;17.70;6.60
702;DHT22;334;48.808;9.222;2023-05-06T03:55:04;17.70;7.00
702;DHT22;334;48.808;9.222;2023-05-06T03:56:07;17.70;7.20
702;DHT22;334;48.808;9.222;2023-05-06T03:57:08;17.70;7.10
702;DHT22;334;48.808;9.222;2023-05-06T03:58:10;17.70;7.20
702;DHT22;334;48.808;9.222;2023-05-06T03:59:12;17.70;7.30
702;DHT22;334;48.808;9.222;2023-05-06T04:00:14;17.70;7.10
702;DHT22;334;48.808;9.222;2023-05-06T04:01:16;17.70;7.10
702;DHT22;334;48.808;9.222;2023-05-06T04:02:18;17.70;7.10
702;DHT22;334;48.808;9.222;2023-05-06T04:03:20;17.70;7.20
702;DHT22;334;48.808;9.222;2023-05-06T04:04:22;17.70;6.90
702;DHT22;334;48.808;9.222;2023-05-06T04:05:24;17.70;6.30
702;DHT22;334;48.808;9.222;2023-05-06T04:06:26;17.70;6.80
702;DHT22;334;48.808;9.222;2023-05-06T04:07:27;17.70;6.20
702;DHT22;334;48.808;9.222;2023-05-06T04:08:29;17.60;6.10
702;DHT22;334;48.808;9.222;2023-05-06T04:09:31;17.60;6.10
702;DHT22;334;48.808;9.222;2023-05-06T04:10:38;17.60;6.10
702;DHT22;334;48.808;9.222;2023-05-06T04:11:40;17.60;6.10
702;DHT22;334;48.808;9.222;2023-05-06T04:12:42;17.60;6.10
702;DHT22;334;48.808;9.222;2023-05-06T04:13:44;17.60;6.10
702;DHT22;334;48.808;9.222;2023-05-06T04:14:46;17.60;6.10
702;DHT22;334;48.808;9.222;2023-05-06T04:15:48;17.60;6.10
702;DHT22;334;48.808;9.222;2023-05-06T04:17:00;17.60;6.10
702;DHT22;334;48.808;9.222;2023-05-06T04:18:02;17.60;6.10
702;DHT22;334;48.808;9.222;2023-05-06T04:19:04;17.60;6.10
702;DHT22;334;48.808;9.222;2023-05-06T04:20:07;17.60;6.10
702;DHT22;334;48.808;9.222;2023-05-06T04:21:12;17.60;6.10
702;DHT22;334;48.808;9.222;2023-05-06T04:22:13;17.60;6.20
702;DHT22;334;48.808;9.222;2023-05-06T04:23:15;17.50;6.10
702;DHT22;334;48.808;9.222;2023-05-06T04:24:17;17.50;6.30
702;DHT22;334;48.808;9.222;2023-05-06T04:25:19;17.50;6.10
702;DHT22;334;48.808;9.222;2023-05-06T04:26:21;17.50;6.10
702;DHT22;334;48.808;9.222;2023-05-06T04:27:23;17.50;6.30
702;DHT22;334;48.808;9.222;2023-05-06T04:28:27;17.50;6.50
702;DHT22;334;48.808;9.222;2023-05-06T04:29:29;17.50;6.50
702;DHT22;334;48.808;9.222;2023-05-06T04:30:31;17.50;6.10
702;DHT22;334;48.808;9.222;2023-05-06T04:31:33;17.50;5.60
702;DHT22;334;48.808;9.222;2023-05-06T04:32:35;17.40;5.70
702;DHT22;334;48.808;9.222;2023-05-06T04:33:37;17.40;6.00
702;DHT22;334;48.808;9.222;2023-05-06T04:34:39;17.50;6.10
702;DHT22;334;48.808;9.222;2023-05-06T04:35:49;17.40;6.00
702;DHT22;334;48.808;9.222;2023-05-06T04:36:54;17.50;6.50
702;DHT22;334;48.808;9.222;2023-05-06T04:37:56;17.40;6.00
702;DHT22;334;48.808;9.222;2023-05-06T04:38:57;17.40;6.00
702;DHT22;334;48.808;9.222;2023-05-06T04:40:01;17.50;6.10
702;DHT22;334;48.808;9.222;2023-05-06T04:41:03;17.40;6.00
702;DHT22;334;48.808;9.222;2023-05-06T04:42:06;17.60;6.10
702;DHT22;334;48.808;9.222;2023-05-06T04:43:08;17.40;6.00
702;DHT22;334;48.808;9.222;2023-05-06T04:44:11;17.50;6.10
702;DHT22;334;48.808;9.222;2023-05-06T04:45:13;17.40;6.00
702;DHT22;334;48.808;9.222;2023-05-06T04:46:15;17.40;6.00
702;DHT22;334;48.808;9.222;2023-05-06T04:47:17;17.40;6.00
702;DHT22;334;48.808;9.222;2023-05-06T04:48:20;17.40;6.00
702;DHT22;334;48.808;9.222;2023-05-06T04:49:22;17.50;6.10
702;DHT22;334;48.808;9.222;2023-05-06T04:50:24;17.40;6.20
702;DHT22;334;48.808;9.222;2023-05-06T04:51:27;17.40;6.50
702;DHT22;334;48.808;9.222;2023-05-06T04:52:29;17.40;6.80
702;DHT22;334;48.808;9.222;2023-05-06T04:53:31;17.40;6.90
702;DHT22;334;48.808;9.222;2023-05-06T04:54:33;17.40;7.00
702;DHT22;334;48.808;9.222;2023-05-06T04:55:35;17.40;7.00
702;DHT22;334;48.808;9.222;2023-05-06T04:56:36;17.40;7.00
702;DHT22;334;48.808;9.222;2023-05-06T04:57:38;17.40;7.30
702;DHT22;334;48.808;9.222;2023-05-06T04:58:40;17.40;7.50
702;DHT22;334;48.808;9.222;2023-05-06T04:59:42;17.40;7.60
702;DHT22;334;48.808;9.222;2023-05-06T05:00:44;17.40;7.90
702;DHT22;334;48.808;9.222;2023-05-06T05:01:46;17.40;8.00
702;DHT22;334;48.808;9.222;2023-05-06T05:02:48;17.40;8.10
702;DHT22;334;48.808;9.222;2023-05-06T05:03:50;17.40;8.10
702;DHT22;334;48.808;9.222;2023-05-06T05:04:51;17.40;8.30
702;DHT22;334;48.808;9.222;2023-05-06T05:05:53;17.50;8.30
702;DHT22;334;48.808;9.222;2023-05-06T05:06:55;17.50;8.20
702;DHT22;334;48.808;9.222;2023-05-06T05:07:58;17.50;8.40
702;DHT22;334;48.808;9.222;2023-05-06T05:09:00;17.50;8.40
702;DHT22;334;48.808;9.222;2023-05-06T05:10:01;17.50;8.50
702;DHT22;334;48.808;9.222;2023-05-06T05:11:07;17.40;8.70
702;DHT22;334;48.808;9.222;2023-05-06T05:12:08;17.40;9.20
702;DHT22;334;48.808;9.222;2023-05-06T05:13:10;17.40;9.20
702;DHT22;334;48.808;9.222;2023-05-06T05:14:12;17.30;9.50
702;DHT22;334;48.808;9.222;2023-05-06T05:15:14;17.30;9.80
702;DHT22;334;48.808;9.222;2023-05-06T05:16:16;17.30;9.90
702;DHT22;334;48.808;9.222;2023-05-06T05:17:18;17.30;10.20
702;DHT22;334;48.808;9.222;2023-05-06T05:18:20;17.30;10.20
702;DHT22;334;48.808;9.222;2023-05-06T05:19:22;17.20;10.30
702;DHT22;334;48.808;9.222;2023-05-06T05:20:24;17.20;10.70
702;DHT22;334;48.808;9.222;2023-05-06T05:21:26;17.20;11.00
702;DHT22;334;48.808;9.222;2023-05-06T05:22:28;17.30;11.20
702;DHT22;334;48.808;9.222;2023-05-06T05:23:29;17.30;11.20
702;DHT22;334;48.808;9.222;2023-05-06T05:24:31;17.30;10.90
702;DHT22;334;48.808;9.222;2023-05-06T05:25:33;17.40;11.00
702;DHT22;334;48.808;9.222;2023-05-06T05:26:34;17.40;11.10
702;DHT22;334;48.808;9.222;2023-05-06T05:27:36;17.40;11.20
702;DHT22;334;48.808;9.222;2023-05-06T05:28:38;17.40;11.00
702;DHT22;334;48.808;9.222;2023-05-06T05:29:41;17.50;11.10
702;DHT22;334;48.808;9.222;2023-05-06T05:30:43;17.50;10.90
702;DHT22;334;48.808;9.222;2023-05-06T05:31:45;17.50;10.80
702;DHT22;334;48.808;9.222;2023-05-06T05:32:47;17.50;10.70
702;DHT22;334;48.808;9.222;2023-05-06T05:33:49;17.50;10.70
702;DHT22;334;48.808;9.222;2023-05-06T05:34:51;17.60;10.90
702;DHT22;334;48.808;9.222;2023-05-06T05:35:53;17.60;10.80
702;DHT22;334;48.808;9.222;2023-05-06T05:36:55;17.60;10.80
702;DHT22;334;48.808;9.222;2023-05-06T05:37:58;17.70;10.50
702;DHT22;334;48.808;9.222;2023-05-06T05:39:00;17.70;10.70
702;DHT22;334;48.808;9.222;2023-05-06T05:40:02;17.80;10.40
702;DHT22;334;48.808;9.222;2023-05-06T05:41:05;17.80;9.90
702;DHT22;334;48.808;9.222;2023-05-06T05:42:07;17.90;10.20
702;DHT22;334;48.808;9.222;2023-05-06T05:43:08;17.90;9.80
702;DHT22;334;48.808;9.222;2023-05-06T05:44:10;18.00;9.50
702;DHT22;334;48.808;9.222;2023-05-06T05:45:12;18.00;9.40
702;DHT22;334;48.808;9.222;2023-05-06T05:46:14;18.10;9.00
702;DHT22;334;48.808;9.222;2023-05-06T05:47:17;18.20;8.50
702;DHT22;334;48.808;9.222;2023-05-06T05:48:19;18.30;8.10
702;DHT22;334;48.808;9.222;2023-05-06T05:49:22;18.40;8.00
702;DHT22;334;48.808;9.222;2023-05-06T05:50:24;18.40;7.20
702;DHT22;334;48.808;9.222;2023-05-06T05:51:26;18.50;6.70
702;DHT22;334;48.808;9.222;2023-05-06T05:52:28;18.50;6.70
702;DHT22;334;48.808;9.222;2023-05-06T05:53:30;18.70;6.30
702;DHT22;334;48.808;9.222;2023-05-06T05:54:32;18.70;5.90
702;DHT22;334;48.808;9.222;2023-05-06T05:55:34;18.80;5.60
702;DHT22;334;48.808;9.222;2023-05-06T05:56:35;18.90;5.40
702;DHT22;334;48.808;9.222;2023-05-06T05:57:38;18.80;4.80
702;DHT22;334;48.808;9.222;2023-05-06T05:58:39;18.90;3.80
702;DHT22;334;48.808;9.222;2023-05-06T05:59:41;18.90;3.60
702;DHT22;334;48.808;9.222;2023-05-06T06:00:43;18.90;4.00
702;DHT22;334;48.808;9.222;2023-05-06T06:01:45;18.90;3.00
702;DHT22;334;48.808;9.222;2023-05-06T06:02:46;18.90;3.00
702;DHT22;334;48.808;9.222;2023-05-06T06:03:48;18.90;2.80
702;DHT22;334;48.808;9.222;2023-05-06T06:04:51;18.90;2.40
702;DHT22;334;48.808;9.222;2023-05-06T06:05:53;18.90;2.70
702;DHT22;334;48.808;9.222;2023-05-06T06:06:55;18.90;2.90
702;DHT22;334;48.808;9.222;2023-05-06T06:08:03;19.00;2.40
702;DHT22;334;48.808;9.222;2023-05-06T06:09:04;19.00;1.70
702;DHT22;334;48.808;9.222;2023-05-06T06:10:07;19.10;1.40
702;DHT22;334;48.808;9.222;2023-05-06T06:11:10;19.10;1.00
702;DHT22;334;48.808;9.222;2023-05-06T06:12:12;19.20;1.00
702;DHT22;334;48.808;9.222;2023-05-06T06:13:14;19.20;1.00
702;DHT22;334;48.808;9.222;2023-05-06T06:14:16;19.30;1.00
702;DHT22;334;48.808;9.222;2023-05-06T06:15:18;19.30;1.00
702;DHT22;334;48.808;9.222;2023-05-06T06:16:21;19.30;1.00
702;DHT22;334;48.808;9.222;2023-05-06T06:17:23;19.30;1.00
702;DHT22;334;48.808;9.222;2023-05-06T06:18:25;19.30;1.00
702;DHT22;334;48.808;9.222;2023-05-06T06:19:26;19.40;1.00
702;DHT22;334;48.808;9.222;2023-05-06T06:20:28;19.40;1.00
702;DHT22;334;48.808;9.222;2023-05-06T06:21:30;19.30;1.00
702;DHT22;334;48.808;9.222;2023-05-06T06:22:33;19.30;1.00
702;DHT22;334;48.808;9.222;2023-05-06T06:23:35;19.30;1.00
702;DHT22;334;48.808;9.222;2023-05-06T06:24:36;19.40;1.00
702;DHT22;334;48.808;9.222;2023-05-06T06:25:38;19.40;1.00
702;DHT22;334;48.808;9.222;2023-05-06T06:26:40;19.30;1.00
702;DHT22;334;48.808;9.222;2023-05-06T06:27:42;19.30;1.00
702;DHT22;334;48.808;9.222;2023-05-06T06:28:44;19.30;1.00
702;DHT22;334;48.808;9.222;2023-05-06T06:29:47;19.30;1.00
702;DHT22;334;48.808;9.222;2023-05-06T06:30:50;19.30;1.00
702;DHT22;334;48.808;9.222;2023-05-06T06:31:52;19.30;1.00
702;DHT22;334;48.808;9.222;2023-05-06T06:32:56;19.30;1.00
702;DHT22;334;48.808;9.222;2023-05-06T06:33:59;19.30;1.00
702;DHT22;334;48.808;9.222;2023-05-06T06:35:01;19.30;1.00
702;DHT22;334;48.808;9.222;2023-05-06T06:36:03;19.30;1.00
702;DHT22;334;48.808;9.222;2023-05-06T06:37:05;19.20;1.00
702;DHT22;334;48.808;9.222;2023-05-06T06:38:08;19.30;1.00
702;DHT22;334;48.808;9.222;2023-05-06T06:39:10;19.30;1.00
702;DHT22;334;48.808;9.222;2023-05-06T06:40:13;19.30;1.00
702;DHT22;334;48.808;9.222;2023-05-06T06:41:15;19.30;1.00
702;DHT22;334;48.808;9.222;2023-05-06T06:42:17;19.30;1.00
702;DHT22;334;48.808;9.222;2023-05-06T06:43:18;19.20;1.00
702;DHT22;334;48.808;9.222;2023-05-06T06:44:22;19.40;1.00
702;DHT22;334;48.808;9.222;2023-05-06T06:45:23;19.20;1.00
702;DHT22;334;48.808;9.222;2023-05-06T06:46:25;19.10;1.00
702;DHT22;334;48.808;9.222;2023-05-06T06:47:27;19.00;1.00
702;DHT22;334;48.808;9.222;2023-05-06T06:48:29;19.00;1.00
702;DHT22;334;48.808;9.222;2023-05-06T06:49:31;18.90;1.00
702;DHT22;334;48.808;9.222;2023-05-06T06:50:33;18.90;1.00
702;DHT22;334;48.808;9.222;2023-05-06T06:51:35;18.90;1.00
702;DHT22;334;48.808;9.222;2023-05-06T06:52:37;18.90;1.00
702;DHT22;334;48.808;9.222;2023-05-06T06:53:39;18.90;1.00
702;DHT22;334;48.808;9.222;2023-05-06T06:54:40;18.90;1.00
702;DHT22;334;48.808;9.222;2023-05-06T06:55:43;18.90;1.00
702;DHT22;334;48.808;9.222;2023-05-06T06:56:45;18.90;1.00
702;DHT22;334;48.808;9.222;2023-05-06T06:57:47;18.90;1.00
702;DHT22;334;48.808;9.222;2023-05-06T06:58:48;18.90;1.00
702;DHT22;334;48.808;9.222;2023-05-06T06:59:53;18.90;1.00
702;DHT22;334;48.808;9.222;2023-05-06T07:00:56;18.90;1.00
702;DHT22;334;48.808;9.222;2023-05-06T07:01:58;18.90;1.00
702;DHT22;334;48.808;9.222;2023-05-06T07:02:59;18.90;1.00
702;DHT22;334;48.808;9.222;2023-05-06T07:04:01;18.90;1.00
702;DHT22;334;48.808;9.222;2023-05-06T07:05:05;18.90;1.00
702;DHT22;334;48.808;9.222;2023-05-06T07:06:07;18.90;1.00
702;DHT22;334;48.808;9.222;2023-05-06T07:07:09;19.00;1.00
702;DHT22;334;48.808;9.222;2023-05-06T07:08:11;19.00;1.00
702;DHT22;334;48.808;9.222;2023-05-06T07:09:13;18.90;1.00
702;DHT22;334;48.808;9.222;2023-05-06T07:10:14;18.90;1.00
702;DHT22;334;48.808;9.222;2023-05-06T07:11:16;18.90;1.00
702;DHT22;334;48.808;9.222;2023-05-06T07:12:18;18.90;1.00
702;DHT22;334;48.808;9.222;2023-05-06T07:13:20;18.90;1.00